sensor_id;sensor_type;location;lat;lon;timestamp;pressure;altitude;pressure_sealevel;temperature;humidity
59951;BME280;45812;53.540;9.774;2023-04-25T00:02:07;100481.72;;;7.24;100.00
59951;BME280;45812;53.540;9.774;2023-04-25T00:04:32;100481.34;;;7.19;100.00
59951;BME280;45812;53.540;9.774;2023-04-25T00:06:59;100478.84;;;7.18;100.00
59951;BME280;45812;53.540;9.774;2023-04-25T00:09:27;100477.19;;;7.17;100.00
59951;BME280;45812;53.540;9.774;2023-04-25T00:11:52;100479.53;;;7.20;100.00
59951;BME280;45812;53.540;9.774;2023-04-25T00:14:17;100487.63;;;7.18;100.00
59951;BME280;45812;53.540;9.774;2023-04-25T00:16:42;100478.31;;;7.14;100.00
59951;BME280;45812;53.540;9.774;2023-04-25T00:19:09;100486.09;;;7.16;100.00
59951;BME280;45812;53.540;9.774;2023-04-25T00:21:34;100487.91;;;7.15;100.00
59951;BME280;45812;53.540;9.774;2023-04-25T00:24:00;100482.09;;;7.12;100.00
59951;BME280;45812;53.540;9.774;2023-04-25T00:26:25;100490.47;;;7.07;100.00
59951;BME280;45812;53.540;9.774;2023-04-25T00:28:51;100488.94;;;7.05;100.00
59951;BME280;45812;53.540;9.774;2023-04-25T00:31:16;100499.69;;;7.03;100.00
59951;BME280;45812;53.540;9.774;2023-04-25T00:33:41;100495.22;;;7.04;100.00
59951;BME280;45812;53.540;9.774;2023-04-25T00:36:07;100507.22;;;6.98;100.00
59951;BME280;45812;53.540;9.774;2023-04-25T00:38:33;100510.84;;;6.97;100.00
59951;BME280;45812;53.540;9.774;2023-04-25T00:40:58;100506.69;;;6.94;100.00
59951;BME280;45812;53.540;9.774;2023-04-25T00:43:26;100513.13;;;6.92;100.00
59951;BME280;45812;53.540;9.774;2023-04-25T00:45:51;100523.44;;;6.85;100.00
59951;BME280;45812;53.540;9.774;2023-04-25T00:48:17;100521.13;;;6.73;100.00
59951;BME280;45812;53.540;9.774;2023-04-25T00:50:51;100520.84;;;6.66;100.00
59951;BME280;45812;53.540;9.774;2023-04-25T00:53:18;100519.78;;;6.59;100.00
59951;BME280;45812;53.540;9.774;2023-04-25T00:55:43;100521.59;;;6.58;100.00
59951;BME280;45812;53.540;9.774;2023-04-25T00:58:08;100527.31;;;6.54;100.00
59951;BME280;45812;53.540;9.774;2023-04-25T01:00:33;100524.81;;;6.52;100.00
59951;BME280;45812;53.540;9.774;2023-04-25T01:02:59;100530.25;;;6.51;100.00
59951;BME280;45812;53.540;9.774;2023-04-25T01:05:25;100527.59;;;6.51;100.00
59951;BME280;45812;53.540;9.774;2023-04-25T01:07:50;100522.44;;;6.49;100.00
59951;BME280;45812;53.540;9.774;2023-04-25T01:10:15;100522.44;;;6.49;100.00
59951;BME280;45812;53.540;9.774;2023-04-25T01:12:40;100535.94;;;6.46;100.00
59951;BME280;45812;53.540;9.774;2023-04-25T01:15:06;100534.31;;;6.35;100.00
59951;BME280;45812;53.540;9.774;2023-04-25T01:17:32;100538.09;;;6.33;100.00
59951;BME280;45812;53.540;9.774;2023-04-25T01:19:59;100530.25;;;6.31;100.00
59951;BME280;45812;53.540;9.774;2023-04-25T01:22:24;100542.66;;;6.31;100.00
59951;BME280;45812;53.540;9.774;2023-04-25T01:24:49;100540.72;;;6.33;100.00
59951;BME280;45812;53.540;9.774;2023-04-25T01:27:15;100539.03;;;6.32;100.00
59951;BME280;45812;53.540;9.774;2023-04-25T01:29:40;100549.59;;;6.32;100.00
59951;BME280;45812;53.540;9.774;2023-04-25T01:32:07;100535.00;;;6.28;100.00
59951;BME280;45812;53.540;9.774;2023-04-25T01:34:32;100542.66;;;6.31;100.00
59951;BME280;45812;53.540;9.774;2023-04-25T01:36:59;100540.72;;;6.33;100.00
59951;BME280;45812;53.540;9.774;2023-04-25T01:39:25;100537.09;;;6.34;100.00
59951;BME280;45812;53.540;9.774;2023-04-25T01:41:51;100542.66;;;6.31;100.00
59951;BME280;45812;53.540;9.774;2023-04-25T01:44:16;100548.78;;;6.22;100.00
59951;BME280;45812;53.540;9.774;2023-04-25T01:46:41;100558.38;;;6.23;100.00
59951;BME280;45812;53.540;9.774;2023-04-25T01:49:07;100553.25;;;6.21;100.00
59951;BME280;45812;53.540;9.774;2023-04-25T01:51:32;100544.63;;;6.19;100.00
59951;BME280;45812;53.540;9.774;2023-04-25T01:53:58;100550.47;;;6.23;100.00
59951;BME280;45812;53.540;9.774;2023-04-25T01:56:23;100564.09;;;6.18;100.00
59951;BME280;45812;53.540;9.774;2023-04-25T01:58:49;100566.31;;;6.13;100.00
59951;BME280;45812;53.540;9.774;2023-04-25T02:01:14;100551.16;;;6.05;100.00
59951;BME280;45812;53.540;9.774;2023-04-25T02:03:39;100551.59;;;6.01;100.00
59951;BME280;45812;53.540;9.774;2023-04-25T02:06:05;100558.81;;;5.99;100.00
59951;BME280;45812;53.540;9.774;2023-04-25T02:08:30;100555.88;;;5.92;100.00
59951;BME280;45812;53.540;9.774;2023-04-25T02:10:56;100559.06;;;5.86;100.00
59951;BME280;45812;53.540;9.774;2023-04-25T02:13:21;100563.94;;;5.81;100.00
59951;BME280;45812;53.540;9.774;2023-04-25T02:15:47;100570.31;;;5.78;100.00
59951;BME280;45812;53.540;9.774;2023-04-25T02:18:12;100567.69;;;5.78;100.00
59951;BME280;45812;53.540;9.774;2023-04-25T02:20:38;100571.56;;;5.84;100.00
59951;BME280;45812;53.540;9.774;2023-04-25T02:23:03;100577.53;;;5.86;100.00
59951;BME280;45812;53.540;9.774;2023-04-25T02:25:28;100576.16;;;5.82;100.00
59951;BME280;45812;53.540;9.774;2023-04-25T02:27:54;100581.84;;;5.87;98.60
59951;BME280;45812;53.540;9.774;2023-04-25T02:30:19;100570.75;;;5.84;98.69
59951;BME280;45812;53.540;9.774;2023-04-25T02:32:45;100578.66;;;5.84;98.46
59951;BME280;45812;53.540;9.774;2023-04-25T02:35:10;100588.13;;;5.86;98.99
59951;BME280;45812;53.540;9.774;2023-04-25T02:37:39;100575.31;;;5.82;97.75
59951;BME280;45812;53.540;9.774;2023-04-25T02:40:05;100581.44;;;5.82;97.95
59951;BME280;45812;53.540;9.774;2023-04-25T02:42:32;100580.06;;;5.78;96.47
59951;BME280;45812;53.540;9.774;2023-04-25T02:44:57;100606.47;;;5.78;96.99
59951;BME280;45812;53.540;9.774;2023-04-25T02:47:23;100581.88;;;5.77;96.72
59951;BME280;45812;53.540;9.774;2023-04-25T02:49:48;100584.75;;;5.65;94.72
59951;BME280;45812;53.540;9.774;2023-04-25T02:52:13;100577.63;;;5.56;95.53
59951;BME280;45812;53.540;9.774;2023-04-25T02:54:39;100579.31;;;5.57;96.20
59951;BME280;45812;53.540;9.774;2023-04-25T02:57:05;100564.72;;;5.53;96.68
59951;BME280;45812;53.540;9.774;2023-04-25T02:59:30;100572.50;;;5.54;97.17
59951;BME280;45812;53.540;9.774;2023-04-25T03:01:55;100570.97;;;5.52;97.81
59951;BME280;45812;53.540;9.774;2023-04-25T03:04:20;100575.53;;;5.50;97.70
59951;BME280;45812;53.540;9.774;2023-04-25T03:06:48;100575.81;;;5.46;97.05
59951;BME280;45812;53.540;9.774;2023-04-25T03:09:13;100589.13;;;5.35;97.50
59951;BME280;45812;53.540;9.774;2023-04-25T03:11:39;100596.19;;;5.25;97.42
59951;BME280;45812;53.540;9.774;2023-04-25T03:14:04;100591.88;;;5.24;98.72
59951;BME280;45812;53.540;9.774;2023-04-25T03:16:30;100592.16;;;5.21;98.88
59951;BME280;45812;53.540;9.774;2023-04-25T03:18:56;100592.25;;;5.20;98.36
59951;BME280;45812;53.540;9.774;2023-04-25T03:21:21;100598.34;;;5.10;97.13
59951;BME280;45812;53.540;9.774;2023-04-25T03:23:46;100598.28;;;5.01;95.46
59951;BME280;45812;53.540;9.774;2023-04-25T03:26:11;100607.56;;;4.95;93.00
59951;BME280;45812;53.540;9.774;2023-04-25T03:28:37;100611.56;;;4.90;92.38
59951;BME280;45812;53.540;9.774;2023-04-25T03:31:02;100608.38;;;4.86;92.04
59951;BME280;45812;53.540;9.774;2023-04-25T03:33:27;100617.94;;;4.87;91.68
59951;BME280;45812;53.540;9.774;2023-04-25T03:35:52;100617.41;;;4.93;90.96
59951;BME280;45812;53.540;9.774;2023-04-25T03:38:18;100616.31;;;4.96;90.51
59951;BME280;45812;53.540;9.774;2023-04-25T03:40:43;100618.25;;;4.94;88.39
59951;BME280;45812;53.540;9.774;2023-04-25T03:43:09;100618.13;;;4.95;88.64
59951;BME280;45812;53.540;9.774;2023-04-25T03:45:34;100612.00;;;4.95;88.63
59951;BME280;45812;53.540;9.774;2023-04-25T03:47:59;100612.53;;;4.89;88.83
59951;BME280;45812;53.540;9.774;2023-04-25T03:50:25;100620.84;;;4.84;89.25
59951;BME280;45812;53.540;9.774;2023-04-25T03:52:50;100619.25;;;4.72;89.36
59951;BME280;45812;53.540;9.774;2023-04-25T03:55:15;100615.50;;;4.74;90.11
59951;BME280;45812;53.540;9.774;2023-04-25T03:57:40;100629.38;;;4.76;90.78
59951;BME280;45812;53.540;9.774;2023-04-25T04:00:06;100624.56;;;4.81;90.04
59951;BME280;45812;53.540;9.774;2023-04-25T04:02:32;100628.75;;;4.84;90.38
59951;BME280;45812;53.540;9.774;2023-04-25T04:04:59;100621.69;;;4.84;90.39
59951;BME280;45812;53.540;9.774;2023-04-25T04:07:24;100629.91;;;4.91;91.33
59951;BME280;45812;53.540;9.774;2023-04-25T04:09:49;100624.75;;;4.90;91.96
59951;BME280;45812;53.540;9.774;2023-04-25T04:12:14;100637.53;;;4.94;91.27
59951;BME280;45812;53.540;9.774;2023-04-25T04:14:40;100635.03;;;4.93;92.98
59951;BME280;45812;53.540;9.774;2023-04-25T04:17:05;100639.91;;;4.97;93.67
59951;BME280;45812;53.540;9.774;2023-04-25T04:19:31;100644.34;;;4.97;93.11
59951;BME280;45812;53.540;9.774;2023-04-25T04:21:56;100642.94;;;4.93;93.80
59951;BME280;45812;53.540;9.774;2023-04-25T04:24:21;100645.28;;;4.86;93.16
59951;BME280;45812;53.540;9.774;2023-04-25T04:26:46;100647.44;;;4.81;93.67
59951;BME280;45812;53.540;9.774;2023-04-25T04:29:12;100647.97;;;4.75;93.30
59951;BME280;45812;53.540;9.774;2023-04-25T04:31:45;100649.47;;;4.68;92.98
59951;BME280;45812;53.540;9.774;2023-04-25T04:34:10;100650.44;;;4.67;93.62
59951;BME280;45812;53.540;9.774;2023-04-25T04:36:36;100659.03;;;4.69;93.39
59951;BME280;45812;53.540;9.774;2023-04-25T04:39:01;100659.75;;;4.71;93.25
59951;BME280;45812;53.540;9.774;2023-04-25T04:41:27;100667.56;;;4.82;93.04
59951;BME280;45812;53.540;9.774;2023-04-25T04:43:52;100666.81;;;4.91;92.56
59951;BME280;45812;53.540;9.774;2023-04-25T04:46:18;100663.78;;;4.96;92.89
59951;BME280;45812;53.540;9.774;2023-04-25T04:48:43;100668.31;;;5.05;93.05
59951;BME280;45812;53.540;9.774;2023-04-25T04:51:09;100677.34;;;5.12;91.52
59951;BME280;45812;53.540;9.774;2023-04-25T04:53:34;100665.81;;;5.13;92.24
59951;BME280;45812;53.540;9.774;2023-04-25T04:55:59;100672.97;;;5.22;92.57
59951;BME280;45812;53.540;9.774;2023-04-25T04:58:25;100671.47;;;5.29;91.35
59951;BME280;45812;53.540;9.774;2023-04-25T05:00:50;100676.47;;;5.32;92.12
59951;BME280;45812;53.540;9.774;2023-04-25T05:03:15;100672.38;;;5.39;90.88
59951;BME280;45812;53.540;9.774;2023-04-25T05:05:41;100686.97;;;5.43;91.30
59951;BME280;45812;53.540;9.774;2023-04-25T05:08:06;100697.94;;;5.48;91.57
59951;BME280;45812;53.540;9.774;2023-04-25T05:10:31;100703.78;;;5.52;91.21
59951;BME280;45812;53.540;9.774;2023-04-25T05:12:57;100708.91;;;5.44;91.64
59951;BME280;45812;53.540;9.774;2023-04-25T05:15:22;100713.94;;;5.47;91.52
59951;BME280;45812;53.540;9.774;2023-04-25T05:17:47;100712.25;;;5.46;91.09
59951;BME280;45812;53.540;9.774;2023-04-25T05:20:12;100707.25;;;5.43;91.16
59951;BME280;45812;53.540;9.774;2023-04-25T05:22:39;100709.00;;;5.33;93.09
59951;BME280;45812;53.540;9.774;2023-04-25T05:25:06;100710.25;;;5.08;94.40
59951;BME280;45812;53.540;9.774;2023-04-25T05:27:32;100707.66;;;4.97;95.64
59951;BME280;45812;53.540;9.774;2023-04-25T05:29:57;100716.28;;;4.99;96.41
59951;BME280;45812;53.540;9.774;2023-04-25T05:32:22;100705.38;;;5.03;95.54
59951;BME280;45812;53.540;9.774;2023-04-25T05:34:48;100721.50;;;5.10;96.42
59951;BME280;45812;53.540;9.774;2023-04-25T05:37:13;100726.38;;;5.14;95.61
59951;BME280;45812;53.540;9.774;2023-04-25T05:39:38;100724.31;;;5.18;95.55
59951;BME280;45812;53.540;9.774;2023-04-25T05:42:04;100712.28;;;5.25;95.53
59951;BME280;45812;53.540;9.774;2023-04-25T05:44:30;100713.28;;;5.34;93.37
59951;BME280;45812;53.540;9.774;2023-04-25T05:46:55;100706.69;;;5.39;94.73
59951;BME280;45812;53.540;9.774;2023-04-25T05:49:21;100707.84;;;5.56;94.88
59951;BME280;45812;53.540;9.774;2023-04-25T05:51:46;100713.44;;;5.63;95.93
59951;BME280;45812;53.540;9.774;2023-04-25T05:54:11;100727.81;;;5.80;94.60
59951;BME280;45812;53.540;9.774;2023-04-25T05:56:36;100719.22;;;5.87;93.78
59951;BME280;45812;53.540;9.774;2023-04-25T05:59:02;100724.81;;;5.94;92.90
59951;BME280;45812;53.540;9.774;2023-04-25T06:01:28;100725.66;;;5.94;93.01
59951;BME280;45812;53.540;9.774;2023-04-25T06:03:53;100733.06;;;6.00;93.65
59951;BME280;45812;53.540;9.774;2023-04-25T06:06:18;100744.47;;;6.01;92.31
59951;BME280;45812;53.540;9.774;2023-04-25T06:08:44;100745.38;;;5.90;92.70
59951;BME280;45812;53.540;9.774;2023-04-25T06:11:10;100756.28;;;5.97;93.10
59951;BME280;45812;53.540;9.774;2023-04-25T06:13:35;100757.44;;;6.14;92.56
59951;BME280;45812;53.540;9.774;2023-04-25T06:16:00;100780.25;;;6.15;93.00
59951;BME280;45812;53.540;9.774;2023-04-25T06:18:25;100767.97;;;6.04;91.94
59951;BME280;45812;53.540;9.774;2023-04-25T06:20:50;100775.75;;;5.96;92.75
59951;BME280;45812;53.540;9.774;2023-04-25T06:23:16;100750.16;;;5.96;93.57
59951;BME280;45812;53.540;9.774;2023-04-25T06:25:41;100753.50;;;6.08;94.12
59951;BME280;45812;53.540;9.774;2023-04-25T06:28:06;100763.38;;;6.06;91.53
59951;BME280;45812;53.540;9.774;2023-04-25T06:30:31;100775.34;;;6.00;92.96
59951;BME280;45812;53.540;9.774;2023-04-25T06:32:57;100763.81;;;6.01;92.45
59951;BME280;45812;53.540;9.774;2023-04-25T06:35:22;100764.63;;;6.02;93.48
59951;BME280;45812;53.540;9.774;2023-04-25T06:37:47;100756.28;;;6.06;92.98
59951;BME280;45812;53.540;9.774;2023-04-25T06:40:12;100751.19;;;6.15;92.07
59951;BME280;45812;53.540;9.774;2023-04-25T06:42:38;100761.75;;;6.15;92.54
59951;BME280;45812;53.540;9.774;2023-04-25T06:45:03;100770.38;;;6.17;90.95
59951;BME280;45812;53.540;9.774;2023-04-25T06:47:29;100772.06;;;6.18;90.01
59951;BME280;45812;53.540;9.774;2023-04-25T06:49:55;100765.25;;;6.25;90.32
59951;BME280;45812;53.540;9.774;2023-04-25T06:52:20;100768.31;;;6.20;89.95
59951;BME280;45812;53.540;9.774;2023-04-25T06:54:45;100769.41;;;6.27;92.45
59951;BME280;45812;53.540;9.774;2023-04-25T06:57:10;100777.34;;;6.27;90.68
59951;BME280;45812;53.540;9.774;2023-04-25T06:59:36;100776.81;;;6.33;92.87
59951;BME280;45812;53.540;9.774;2023-04-25T07:02:01;100783.09;;;6.42;92.32
59951;BME280;45812;53.540;9.774;2023-04-25T07:04:26;100782.81;;;6.45;89.79
59951;BME280;45812;53.540;9.774;2023-04-25T07:06:51;100781.16;;;6.44;88.56
59951;BME280;45812;53.540;9.774;2023-04-25T07:09:17;100785.78;;;6.52;89.44
59951;BME280;45812;53.540;9.774;2023-04-25T07:11:42;100792.59;;;6.64;86.96
59951;BME280;45812;53.540;9.774;2023-04-25T07:14:07;100791.22;;;6.70;85.20
59951;BME280;45812;53.540;9.774;2023-04-25T07:16:32;100788.13;;;6.64;86.91
59951;BME280;45812;53.540;9.774;2023-04-25T07:18:58;100786.88;;;6.68;84.75
59951;BME280;45812;53.540;9.774;2023-04-25T07:21:24;100786.19;;;6.66;84.31
59951;BME280;45812;53.540;9.774;2023-04-25T07:23:50;100802.47;;;6.62;84.60
59951;BME280;45812;53.540;9.774;2023-04-25T07:26:15;100791.47;;;6.66;83.92
59951;BME280;45812;53.540;9.774;2023-04-25T07:28:41;100799.25;;;6.68;83.39
59951;BME280;45812;53.540;9.774;2023-04-25T07:31:06;100797.63;;;6.77;83.39
59951;BME280;45812;53.540;9.774;2023-04-25T07:33:31;100798.44;;;6.87;81.82
59951;BME280;45812;53.540;9.774;2023-04-25T07:35:57;100801.25;;;6.95;84.93
59951;BME280;45812;53.540;9.774;2023-04-25T07:38:22;100807.22;;;7.16;84.27
59951;BME280;45812;53.540;9.774;2023-04-25T07:40:48;100798.72;;;7.22;82.70
59951;BME280;45812;53.540;9.774;2023-04-25T07:43:13;100799.66;;;7.41;80.86
59951;BME280;45812;53.540;9.774;2023-04-25T07:45:41;100809.13;;;7.53;77.45
59951;BME280;45812;53.540;9.774;2023-04-25T07:48:07;100804.78;;;7.62;76.83
59951;BME280;45812;53.540;9.774;2023-04-25T07:50:32;100812.31;;;7.56;74.91
59951;BME280;45812;53.540;9.774;2023-04-25T07:52:57;100814.16;;;7.46;73.46
59951;BME280;45812;53.540;9.774;2023-04-25T07:55:23;100814.56;;;7.51;75.66
59951;BME280;45812;53.540;9.774;2023-04-25T07:57:48;100823.06;;;7.55;74.48
59951;BME280;45812;53.540;9.774;2023-04-25T08:00:13;100807.56;;;7.70;74.33
59951;BME280;45812;53.540;9.774;2023-04-25T08:02:40;100818.94;;;7.80;71.34
59951;BME280;45812;53.540;9.774;2023-04-25T08:05:05;100812.72;;;7.71;72.56
59951;BME280;45812;53.540;9.774;2023-04-25T08:07:33;100815.06;;;7.74;74.26
59951;BME280;45812;53.540;9.774;2023-04-25T08:09:58;100828.59;;;7.81;73.83
59951;BME280;45812;53.540;9.774;2023-04-25T08:12:23;100818.63;;;7.93;74.28
59951;BME280;45812;53.540;9.774;2023-04-25T08:14:49;100816.59;;;8.14;74.53
59951;BME280;45812;53.540;9.774;2023-04-25T08:17:14;100830.97;;;8.48;71.66
59951;BME280;45812;53.540;9.774;2023-04-25T08:19:40;100830.34;;;8.55;70.56
59951;BME280;45812;53.540;9.774;2023-04-25T08:22:05;100825.88;;;8.55;68.67
59951;BME280;45812;53.540;9.774;2023-04-25T08:24:30;100836.22;;;8.58;67.35
59951;BME280;45812;53.540;9.774;2023-04-25T08:26:55;100837.38;;;8.56;68.30
59951;BME280;45812;53.540;9.774;2023-04-25T08:29:21;100835.41;;;8.58;69.90
59951;BME280;45812;53.540;9.774;2023-04-25T08:31:48;100837.91;;;8.59;67.25
59951;BME280;45812;53.540;9.774;2023-04-25T08:34:13;100850.06;;;8.79;68.10
59951;BME280;45812;53.540;9.774;2023-04-25T08:36:38;100846.81;;;9.21;68.28
59951;BME280;45812;53.540;9.774;2023-04-25T08:39:04;100851.22;;;9.30;65.03
59951;BME280;45812;53.540;9.774;2023-04-25T08:41:30;100876.69;;;9.41;64.89
59951;BME280;45812;53.540;9.774;2023-04-25T08:43:57;100869.34;;;9.35;65.26
59951;BME280;45812;53.540;9.774;2023-04-25T08:46:25;100888.78;;;9.18;68.62
59951;BME280;45812;53.540;9.774;2023-04-25T08:48:52;100897.25;;;8.21;80.83
59951;BME280;45812;53.540;9.774;2023-04-25T08:51:22;100913.94;;;6.97;91.95
59951;BME280;45812;53.540;9.774;2023-04-25T08:53:52;100925.81;;;6.63;97.71
59951;BME280;45812;53.540;9.774;2023-04-25T08:56:18;100923.53;;;6.18;96.31
59951;BME280;45812;53.540;9.774;2023-04-25T08:58:47;100922.09;;;5.72;94.39
59951;BME280;45812;53.540;9.774;2023-04-25T09:01:13;100942.13;;;5.54;99.25
59951;BME280;45812;53.540;9.774;2023-04-25T09:03:38;100914.69;;;5.45;99.30
59951;BME280;45812;53.540;9.774;2023-04-25T09:06:03;100907.16;;;5.62;100.00
59951;BME280;45812;53.540;9.774;2023-04-25T09:08:29;100928.03;;;5.86;97.27
59951;BME280;45812;53.540;9.774;2023-04-25T09:10:55;100922.06;;;6.04;94.99
59951;BME280;45812;53.540;9.774;2023-04-25T09:13:26;100924.81;;;6.24;91.13
59951;BME280;45812;53.540;9.774;2023-04-25T09:15:53;100916.41;;;6.40;90.42
59951;BME280;45812;53.540;9.774;2023-04-25T09:18:27;100922.06;;;6.65;89.79
59951;BME280;45812;53.540;9.774;2023-04-25T09:20:54;100928.94;;;6.87;90.04
59951;BME280;45812;53.540;9.774;2023-04-25T09:23:20;100940.66;;;6.94;88.86
59951;BME280;45812;53.540;9.774;2023-04-25T09:25:47;100926.19;;;6.89;89.63
59951;BME280;45812;53.540;9.774;2023-04-25T09:28:13;100939.97;;;7.02;90.28
59951;BME280;45812;53.540;9.774;2023-04-25T09:30:38;100957.47;;;7.53;91.12
59951;BME280;45812;53.540;9.774;2023-04-25T09:33:08;100977.06;;;7.21;94.34
59951;BME280;45812;53.540;9.774;2023-04-25T09:35:38;100955.03;;;7.02;99.85
59951;BME280;45812;53.540;9.774;2023-04-25T09:38:08;100965.19;;;6.96;100.00
59951;BME280;45812;53.540;9.774;2023-04-25T09:40:39;100948.56;;;6.85;98.75
59951;BME280;45812;53.540;9.774;2023-04-25T09:43:20;100948.97;;;6.80;93.38
59951;BME280;45812;53.540;9.774;2023-04-25T09:45:46;100956.91;;;6.80;94.14
59951;BME280;45812;53.540;9.774;2023-04-25T09:48:17;100957.88;;;6.70;90.24
59951;BME280;45812;53.540;9.774;2023-04-25T09:50:43;100959.75;;;6.98;91.67
59951;BME280;45812;53.540;9.774;2023-04-25T09:53:08;100960.38;;;7.31;88.69
59951;BME280;45812;53.540;9.774;2023-04-25T09:55:35;100971.97;;;7.68;88.39
59951;BME280;45812;53.540;9.774;2023-04-25T09:58:05;100972.63;;;7.99;85.30
59951;BME280;45812;53.540;9.774;2023-04-25T10:00:33;100958.22;;;8.21;81.24
59951;BME280;45812;53.540;9.774;2023-04-25T10:03:01;100971.25;;;8.05;82.02
59951;BME280;45812;53.540;9.774;2023-04-25T10:05:30;100971.13;;;7.87;84.23
59951;BME280;45812;53.540;9.774;2023-04-25T10:07:59;100966.91;;;8.04;84.52
59951;BME280;45812;53.540;9.774;2023-04-25T10:10:24;100991.72;;;8.22;84.93
59951;BME280;45812;53.540;9.774;2023-04-25T10:12:52;100969.91;;;8.28;82.27
59951;BME280;45812;53.540;9.774;2023-04-25T10:15:19;100971.00;;;8.82;80.18
59951;BME280;45812;53.540;9.774;2023-04-25T10:17:45;100958.34;;;9.75;76.74
59951;BME280;45812;53.540;9.774;2023-04-25T10:20:10;100961.09;;;10.26;75.45
59951;BME280;45812;53.540;9.774;2023-04-25T10:22:42;100963.19;;;10.75;73.03
59951;BME280;45812;53.540;9.774;2023-04-25T10:25:09;100961.28;;;10.59;67.23
59951;BME280;45812;53.540;9.774;2023-04-25T10:27:35;100973.63;;;9.90;63.84
59951;BME280;45812;53.540;9.774;2023-04-25T10:32:31;101004.75;;;8.99;64.92
59951;BME280;45812;53.540;9.774;2023-04-25T10:37:57;100992.59;;;9.95;72.93
59951;BME280;45812;53.540;9.774;2023-04-25T10:40:23;100990.09;;;10.20;65.87
59951;BME280;45812;53.540;9.774;2023-04-25T10:42:48;101015.63;;;9.87;66.49
59951;BME280;45812;53.540;9.774;2023-04-25T10:45:14;101005.13;;;9.32;69.38
59951;BME280;45812;53.540;9.774;2023-04-25T10:47:43;101011.13;;;9.06;69.42
59951;BME280;45812;53.540;9.774;2023-04-25T10:50:10;101016.53;;;8.87;68.67
59951;BME280;45812;53.540;9.774;2023-04-25T10:52:38;101009.09;;;8.63;72.08
59951;BME280;45812;53.540;9.774;2023-04-25T10:55:04;101018.97;;;8.71;71.70
59951;BME280;45812;53.540;9.774;2023-04-25T10:57:31;101009.00;;;8.83;72.49
59951;BME280;45812;53.540;9.774;2023-04-25T11:02:30;101042.16;;;9.33;67.24
59951;BME280;45812;53.540;9.774;2023-04-25T11:04:56;101001.69;;;10.11;64.97
59951;BME280;45812;53.540;9.774;2023-04-25T11:07:37;101016.53;;;11.49;65.56
59951;BME280;45812;53.540;9.774;2023-04-25T11:10:04;101005.09;;;13.02;54.90
59951;BME280;45812;53.540;9.774;2023-04-25T11:12:31;100980.47;;;13.91;52.96
59951;BME280;45812;53.540;9.774;2023-04-25T11:15:04;100988.84;;;14.49;51.75
59951;BME280;45812;53.540;9.774;2023-04-25T11:17:30;100994.75;;;15.03;50.24
59951;BME280;45812;53.540;9.774;2023-04-25T11:19:55;101000.66;;;15.64;46.10
59951;BME280;45812;53.540;9.774;2023-04-25T11:22:22;100995.41;;;16.27;43.42
59951;BME280;45812;53.540;9.774;2023-04-25T11:24:47;101043.31;;;15.59;44.38
59951;BME280;45812;53.540;9.774;2023-04-25T11:27:13;101028.84;;;13.67;50.73
59951;BME280;45812;53.540;9.774;2023-04-25T11:29:38;101037.41;;;11.62;63.17
59951;BME280;45812;53.540;9.774;2023-04-25T11:32:04;101044.69;;;10.42;67.38
59951;BME280;45812;53.540;9.774;2023-04-25T11:34:31;101041.91;;;9.54;70.43
59951;BME280;45812;53.540;9.774;2023-04-25T11:36:56;101055.88;;;9.01;70.55
59951;BME280;45812;53.540;9.774;2023-04-25T11:39:24;101043.19;;;8.48;71.92
59951;BME280;45812;53.540;9.774;2023-04-25T11:41:49;101034.94;;;8.52;76.78
59951;BME280;45812;53.540;9.774;2023-04-25T11:44:16;101038.16;;;8.92;77.17
59951;BME280;45812;53.540;9.774;2023-04-25T11:46:42;101043.06;;;10.05;76.92
59951;BME280;45812;53.540;9.774;2023-04-25T11:49:07;101043.97;;;12.41;70.12
59951;BME280;45812;53.540;9.774;2023-04-25T11:54:05;101040.63;;;16.51;51.86
59951;BME280;45812;53.540;9.774;2023-04-25T11:56:31;101030.50;;;16.75;47.15
59951;BME280;45812;53.540;9.774;2023-04-25T11:59:05;101038.66;;;15.89;49.70
59951;BME280;45812;53.540;9.774;2023-04-25T12:01:36;101040.41;;;14.66;51.95
59951;BME280;45812;53.540;9.774;2023-04-25T12:04:13;101030.31;;;13.70;48.12
59951;BME280;45812;53.540;9.774;2023-04-25T12:06:40;101043.53;;;12.93;47.98
59951;BME280;45812;53.540;9.774;2023-04-25T12:09:10;101043.81;;;12.02;49.53
59951;BME280;45812;53.540;9.774;2023-04-25T12:11:44;101051.25;;;11.58;51.69
59951;BME280;45812;53.540;9.774;2023-04-25T12:14:10;101050.19;;;11.34;54.46
59951;BME280;45812;53.540;9.774;2023-04-25T12:16:45;101049.06;;;11.11;56.25
59951;BME280;45812;53.540;9.774;2023-04-25T12:19:15;101057.72;;;10.53;54.79
59951;BME280;45812;53.540;9.774;2023-04-25T12:21:41;101054.22;;;9.91;58.29
59951;BME280;45812;53.540;9.774;2023-04-25T12:24:16;101060.13;;;9.49;62.08
59951;BME280;45812;53.540;9.774;2023-04-25T12:26:49;101071.47;;;9.69;63.71
59951;BME280;45812;53.540;9.774;2023-04-25T12:29:22;101071.22;;;11.53;58.75
59951;BME280;45812;53.540;9.774;2023-04-25T12:31:49;101060.31;;;13.26;56.26
59951;BME280;45812;53.540;9.774;2023-04-25T12:34:14;101058.88;;;14.00;49.28
59951;BME280;45812;53.540;9.774;2023-04-25T12:36:40;101072.53;;;13.59;50.61
59951;BME280;45812;53.540;9.774;2023-04-25T12:39:05;101073.19;;;13.14;45.82
59951;BME280;45812;53.540;9.774;2023-04-25T12:41:32;101066.34;;;12.40;48.56
59951;BME280;45812;53.540;9.774;2023-04-25T12:43:57;101083.03;;;11.51;52.31
59951;BME280;45812;53.540;9.774;2023-04-25T12:46:22;101083.63;;;10.95;57.25
59951;BME280;45812;53.540;9.774;2023-04-25T12:48:50;101095.81;;;10.27;62.19
59951;BME280;45812;53.540;9.774;2023-04-25T12:51:15;101087.34;;;9.96;68.36
59951;BME280;45812;53.540;9.774;2023-04-25T12:53:41;101099.91;;;10.04;68.92
59951;BME280;45812;53.540;9.774;2023-04-25T12:56:07;101103.81;;;10.18;71.86
59951;BME280;45812;53.540;9.774;2023-04-25T12:58:33;101091.16;;;10.12;66.35
59951;BME280;45812;53.540;9.774;2023-04-25T13:00:59;101104.59;;;10.10;64.15
59951;BME280;45812;53.540;9.774;2023-04-25T13:03:24;101090.38;;;10.19;63.29